Time,TemperatureF,DewpointF,PressureIn,WindDirection,WindDirectionDegrees,WindSpeedMPH,WindSpeedGustMPH,Humidity,HourlyPrecipIn,Conditions,Clouds,dailyrainin,SoftwareType,DateUTC
2013-05-31 00:00:00,65.0,41.4,29.94,North,0,0.0,0.0,42,0.00,,CLR,0.00,VWS V14.01,2013-05-31 07:00:00,
2013-05-31 01:00:00,65.0,38.8,29.94,North,0,0.0,0.0,38,0.00,,CLR,0.00,VWS V14.01,2013-05-31 08:00:00,
2013-05-31 02:00:00,61.4,41.6,29.95,North,0,0.0,0.0,48,0.00,,CLR,0.00,VWS V14.01,2013-05-31 09:00:00,
2013-05-31 03:00:00,59.3,41.2,29.94,North,0,0.0,0.0,51,0.00,,CLR,0.00,VWS V14.01,2013-05-31 10:00:00,
2013-05-31 04:00:00,56.9,41.4,29.94,North,0,1.0,1.0,56,0.00,,CLR,0.00,VWS V14.01,2013-05-31 11:00:00,
2013-05-31 05:00:00,55.1,43.2,29.94,North,0,0.0,0.0,64,0.00,,CLR,0.00,VWS V14.01,2013-05-31 12:00:00,
2013-05-31 05:59:00,53.2,41.8,29.96,NNW,346,1.0,1.0,65,0.00,,CLR,0.00,VWS V14.01,2013-05-31 12:59:00,
2013-05-31 06:00:00,53.2,41.8,29.96,NNW,346,1.0,1.0,65,0.00,,CLR,0.00,VWS V14.01,2013-05-31 13:00:00,
2013-05-31 06:59:00,54.6,44.3,29.97,NNW,347,0.0,0.0,68,0.00,,CLR,0.00,VWS V14.01,2013-05-31 13:59:00,
2013-05-31 07:00:00,54.6,44.3,29.97,NNW,347,0.0,0.0,68,0.00,,CLR,0.00,VWS V14.01,2013-05-31 14:00:00,
2013-05-31 08:00:00,63.0,46.6,29.98,NW,308,3.0,3.0,55,0.00,,CLR,0.00,VWS V14.01,2013-05-31 15:00:00,
2013-05-31 08:59:00,68.4,41.8,29.98,WNW,293,3.0,3.0,38,0.00,,CLR,0.00,VWS V14.01,2013-05-31 15:59:00,
2013-05-31 09:00:00,68.4,41.8,29.98,WNW,293,3.0,3.0,38,0.00,,CLR,0.00,VWS V14.01,2013-05-31 16:00:00,
2013-05-31 09:59:00,72.5,39.3,29.97,NW,312,8.0,8.0,30,0.00,,CLR,0.00,VWS V14.01,2013-05-31 16:59:00,
2013-05-31 10:00:00,72.5,39.3,29.97,NW,312,8.0,8.0,30,0.00,,CLR,0.00,VWS V14.01,2013-05-31 17:00:00,
2013-05-31 10:59:00,77.2,39.7,29.97,WNW,295,11.0,11.0,26,0.00,,CLR,0.00,VWS V14.01,2013-05-31 17:59:00,
2013-05-31 11:00:00,77.2,39.7,29.97,WNW,295,11.0,11.0,26,0.00,,CLR,0.00,VWS V14.01,2013-05-31 18:00:00,
2013-05-31 11:59:00,81.0,40.8,29.95,NW,310,15.0,15.0,24,0.00,,CLR,0.00,VWS V14.01,2013-05-31 18:59:00,
2013-05-31 12:00:00,81.0,40.8,29.95,NW,310,15.0,15.0,24,0.00,,CLR,0.00,VWS V14.01,2013-05-31 19:00:00,
2013-05-31 12:59:00,85.1,36.9,29.94,NW,314,8.0,8.0,18,0.00,,CLR,0.00,VWS V14.01,2013-05-31 19:59:00,
2013-05-31 13:00:00,85.1,36.9,29.94,NW,314,8.0,8.0,18,0.00,,CLR,0.00,VWS V14.01,2013-05-31 20:00:00,
2013-05-31 13:59:00,87.6,38.9,29.92,NW,314,8.0,8.0,18,0.00,,CLR,0.00,VWS V14.01,2013-05-31 20:59:00,
2013-05-31 14:00:00,87.6,38.9,29.92,NW,314,8.0,8.0,18,0.00,,CLR,0.00,VWS V14.01,2013-05-31 21:00:00,
2013-05-31 14:59:00,88.9,37.0,29.90,NW,310,3.0,3.0,16,0.00,,CLR,0.00,VWS V14.01,2013-05-31 21:59:00,
2013-05-31 15:00:00,88.9,37.0,29.90,NW,310,3.0,3.0,16,0.00,,CLR,0.00,VWS V14.01,2013-05-31 22:00:00,
2013-05-31 15:59:00,91.2,35.4,29.89,WNW,282,6.0,6.0,14,0.00,,CLR,0.00,VWS V14.01,2013-05-31 22:59:00,
2013-05-31 16:00:00,91.2,35.4,29.89,WNW,282,6.0,6.0,14,0.00,,CLR,0.00,VWS V14.01,2013-05-31 23:00:00,
2013-05-31 16:59:00,92.0,37.8,29.87,West,280,7.0,7.0,15,0.00,,CLR,0.00,VWS V14.01,2013-05-31 23:59:00,
2013-05-31 17:00:00,92.0,37.8,29.87,West,280,7.0,7.0,15,0.00,,CLR,0.00,VWS V14.01,2013-06-01 00:00:00,
2013-05-31 17:59:00,91.4,37.3,29.86,NW,307,7.0,7.0,15,0.00,,CLR,0.00,VWS V14.01,2013-06-01 00:59:00,
2013-05-31 18:00:00,91.4,37.3,29.86,NW,307,7.0,7.0,15,0.00,,CLR,0.00,VWS V14.01,2013-06-01 01:00:00,
2013-05-31 18:59:00,91.0,33.4,29.86,NW,324,12.0,12.0,13,0.00,,CLR,0.00,VWS V14.01,2013-06-01 01:59:00,
2013-05-31 19:00:00,91.0,33.4,29.86,NW,324,12.0,12.0,13,0.00,,CLR,0.00,VWS V14.01,2013-06-01 02:00:00,
2013-05-31 19:59:00,88.3,38.0,29.86,West,275,0.0,0.0,17,0.00,,CLR,0.00,VWS V14.01,2013-06-01 02:59:00,
2013-05-31 20:00:00,88.3,38.0,29.86,West,275,0.0,0.0,17,0.00,,CLR,0.00,VWS V14.01,2013-06-01 03:00:00,
2013-05-31 20:59:00,82.7,43.3,29.86,West,264,0.0,0.0,25,0.00,,CLR,0.00,VWS V14.01,2013-06-01 03:59:00,
2013-05-31 21:00:00,82.7,43.3,29.86,West,264,0.0,0.0,25,0.00,,CLR,0.00,VWS V14.01,2013-06-01 04:00:00,
2013-05-31 21:59:00,78.6,44.6,29.86,West,264,1.0,1.0,30,0.00,,CLR,0.00,VWS V14.01,2013-06-01 04:59:00,
2013-05-31 22:00:00,78.6,44.6,29.86,West,264,1.0,1.0,30,0.00,,CLR,0.00,VWS V14.01,2013-06-01 05:00:00,
2013-05-31 22:59:00,73.7,45.1,29.86,West,264,0.0,0.0,36,0.00,,CLR,0.00,VWS V14.01,2013-06-01 05:59:00,
2013-05-31 23:00:00,73.7,45.1,29.86,West,264,0.0,0.0,36,0.00,,CLR,0.00,VWS V14.01,2013-06-01 06:00:00,
2013-05-31 23:06:00,73.4,44.1,29.86,West,264,1.0,1.0,35,0.00,,CLR,0.00,VWS V14.01,2013-06-01 06:06:00,
2013-05-31 23:11:00,73.0,43.8,29.86,West,264,1.0,1.0,35,0.00,,CLR,0.00,VWS V14.01,2013-06-01 06:11:00,
2013-05-31 23:16:00,72.8,43.6,29.86,West,264,0.0,0.0,35,0.00,,CLR,0.00,VWS V14.01,2013-06-01 06:16:00,
2013-05-31 23:21:00,72.5,43.3,29.86,West,264,1.0,1.0,35,0.00,,CLR,0.00,VWS V14.01,2013-06-01 06:21:00,
2013-05-31 23:26:00,72.4,44.0,29.86,West,264,1.0,1.0,36,0.00,,CLR,0.00,VWS V14.01,2013-06-01 06:26:00,
2013-05-31 23:31:00,72.1,43.7,29.86,West,264,1.0,1.0,36,0.00,,CLR,0.00,VWS V14.01,2013-06-01 06:31:00,
2013-05-31 23:36:00,72.0,44.3,29.86,West,264,2.0,2.0,37,0.00,,CLR,0.00,VWS V14.01,2013-06-01 06:36:00,
2013-05-31 23:42:00,71.7,44.8,29.86,West,264,2.0,2.0,38,0.00,,CLR,0.00,VWS V14.01,2013-06-01 06:42:00,
2013-05-31 23:47:00,71.4,45.2,29.86,West,264,1.0,1.0,39,0.00,,CLR,0.00,VWS V14.01,2013-06-01 06:47:00,
2013-05-31 23:52:00,71.0,45.5,29.86,West,264,1.0,1.0,40,0.00,,CLR,0.00,VWS V14.01,2013-06-01 06:52:00,
2013-05-31 23:57:00,70.7,45.2,29.86,West,264,1.0,1.0,40,0.00,,CLR,0.00,VWS V14.01,2013-06-01 06:57:00,